createdAt,value
2024-03-06T00:00:23.845Z,6.80
2024-03-06T00:02:50.893Z,6.88
2024-03-06T00:05:17.767Z,6.57
2024-03-06T00:07:44.539Z,6.25
2024-03-06T00:10:11.361Z,6.10
2024-03-06T00:12:38.121Z,6.78
2024-03-06T00:15:05.164Z,7.38
2024-03-06T00:17:31.891Z,7.13
2024-03-06T00:19:58.643Z,7.00
2024-03-06T00:22:25.356Z,5.97
2024-03-06T00:24:53.102Z,6.53
2024-03-06T00:27:19.951Z,6.20
2024-03-06T00:29:46.603Z,5.05
2024-03-06T00:32:13.364Z,6.22
2024-03-06T00:34:40.668Z,5.72
2024-03-06T00:37:07.358Z,6.25
2024-03-06T00:39:33.997Z,5.78
2024-03-06T00:42:00.703Z,6.18
2024-03-06T00:44:27.324Z,5.93
2024-03-06T00:46:54.021Z,6.53
2024-03-06T00:49:20.833Z,5.32
2024-03-06T00:51:49.526Z,6.15
2024-03-06T00:54:17.452Z,5.72
2024-03-06T00:56:44.612Z,6.30
2024-03-06T00:59:11.738Z,5.15
2024-03-06T01:01:38.678Z,5.25
2024-03-06T01:04:05.504Z,6.43
2024-03-06T01:06:32.149Z,6.35
2024-03-06T01:08:59.443Z,6.68
2024-03-06T01:11:27.631Z,5.97
2024-03-06T01:13:54.916Z,6.10
2024-03-06T01:16:21.771Z,6.43
2024-03-06T01:18:48.587Z,4.97
2024-03-06T01:21:15.483Z,5.60
2024-03-06T01:23:42.253Z,5.03
2024-03-06T01:26:08.999Z,5.20
2024-03-06T01:28:35.774Z,4.65
2024-03-06T01:31:02.466Z,5.63
2024-03-06T01:33:29.144Z,5.47
2024-03-06T01:35:55.831Z,5.55
2024-03-06T01:38:22.889Z,4.80
2024-03-06T01:40:49.752Z,5.25
2024-03-06T01:43:24.456Z,5.45
2024-03-06T01:45:51.889Z,5.05
2024-03-06T01:48:20.315Z,6.95
2024-03-06T01:50:47.309Z,5.18
2024-03-06T01:53:16.823Z,6.00
2024-03-06T01:55:43.910Z,5.10
2024-03-06T01:58:10.894Z,4.65
2024-03-06T02:00:38.212Z,4.47
2024-03-06T02:03:05.260Z,4.72
2024-03-06T02:05:33.090Z,5.15
2024-03-06T02:08:03.629Z,5.10
2024-03-06T02:10:31.591Z,5.40
2024-03-06T02:12:58.995Z,5.90
2024-03-06T02:15:25.694Z,4.43
2024-03-06T02:17:53.299Z,5.60
2024-03-06T02:20:26.849Z,4.55
2024-03-06T02:22:53.612Z,5.70
2024-03-06T02:25:20.773Z,5.20
2024-03-06T02:27:49.411Z,5.72
2024-03-06T02:30:20.167Z,5.93
2024-03-06T02:32:46.852Z,4.88
2024-03-06T02:35:14.998Z,5.50
2024-03-06T02:37:48.191Z,5.72
2024-03-06T02:40:15.020Z,5.25
2024-03-06T02:42:41.724Z,4.53
2024-03-06T02:45:09.660Z,5.90
2024-03-06T02:47:36.448Z,5.20
2024-03-06T02:50:03.351Z,5.80
2024-03-06T02:52:30.091Z,5.93
2024-03-06T02:54:57.602Z,5.40
2024-03-06T02:57:24.315Z,6.53
2024-03-06T02:59:51.146Z,5.05
2024-03-06T03:02:18.106Z,5.15
2024-03-06T03:04:45.100Z,5.20
2024-03-06T03:07:11.863Z,6.28
2024-03-06T03:09:39.479Z,5.50
2024-03-06T03:12:07.183Z,5.95
2024-03-06T03:14:34.090Z,5.65
2024-03-06T03:17:02.025Z,7.05
2024-03-06T03:19:28.781Z,5.25
2024-03-06T03:21:55.479Z,5.13
2024-03-06T03:24:22.839Z,5.43
2024-03-06T03:26:49.676Z,5.85
2024-03-06T03:29:16.388Z,5.45
2024-03-06T03:31:43.670Z,5.85
2024-03-06T03:34:13.305Z,5.38
2024-03-06T03:36:43.785Z,5.75
2024-03-06T03:39:21.524Z,6.03
2024-03-06T03:41:49.658Z,5.63
2024-03-06T03:44:17.660Z,7.03
2024-03-06T03:46:44.964Z,6.05
2024-03-06T03:49:12.011Z,5.40
2024-03-06T03:51:40.295Z,5.03
2024-03-06T03:54:07.513Z,4.47
2024-03-06T03:56:34.682Z,5.88
2024-03-06T03:59:01.433Z,4.03
2024-03-06T04:01:28.929Z,5.00
2024-03-06T04:03:55.673Z,5.07
2024-03-06T04:06:22.375Z,6.22
2024-03-06T04:08:54.948Z,8.50
2024-03-06T04:11:21.774Z,6.30
2024-03-06T04:13:48.645Z,5.22
2024-03-06T04:16:20.851Z,6.82
2024-03-06T04:18:47.988Z,5.13
2024-03-06T04:21:15.922Z,5.38
2024-03-06T04:23:42.861Z,4.57
2024-03-06T04:26:09.727Z,5.13
2024-03-06T04:28:36.498Z,4.97
2024-03-06T04:31:03.235Z,5.28
2024-03-06T04:33:29.928Z,5.07
2024-03-06T04:35:57.198Z,4.88
2024-03-06T04:38:23.941Z,4.50
2024-03-06T04:40:50.793Z,5.40
2024-03-06T04:43:17.449Z,4.90
2024-03-06T04:45:44.064Z,4.90
2024-03-06T04:48:11.001Z,4.93
2024-03-06T04:50:37.692Z,5.15
2024-03-06T04:53:04.534Z,4.53
2024-03-06T04:55:31.880Z,5.05
2024-03-06T04:57:58.530Z,5.20
2024-03-06T05:00:25.561Z,5.40
2024-03-06T06:00:25.078Z,5.27
2024-03-06T06:02:52.250Z,7.50
2024-03-06T06:05:23.518Z,6.18
2024-03-06T06:07:54.241Z,6.47
2024-03-06T06:10:22.232Z,6.25
2024-03-06T06:12:50.126Z,6.03
2024-03-06T06:15:17.130Z,5.05
2024-03-06T06:17:45.730Z,5.65
2024-03-06T06:20:16.387Z,6.22
2024-03-06T06:22:43.898Z,5.28
2024-03-06T06:25:11.352Z,4.88
2024-03-06T06:27:39.204Z,4.95
2024-03-06T06:30:08.024Z,8.02
2024-03-06T06:32:35.425Z,6.10
2024-03-06T06:35:02.478Z,6.28
2024-03-06T06:37:29.209Z,6.30
2024-03-06T06:39:55.878Z,6.90
2024-03-06T06:42:22.594Z,5.40
2024-03-06T06:44:49.284Z,6.10
2024-03-06T06:47:16.023Z,5.72
2024-03-06T06:49:42.705Z,6.10
2024-03-06T06:52:09.382Z,6.75
2024-03-06T06:54:36.070Z,6.53
2024-03-06T06:57:04.404Z,6.78
2024-03-06T06:59:31.261Z,6.10
2024-03-06T07:01:58.171Z,6.70
2024-03-06T07:04:25.666Z,7.60
2024-03-06T07:06:52.561Z,7.40
2024-03-06T07:09:20.371Z,7.43
2024-03-06T07:11:47.176Z,7.65
2024-03-06T07:14:14.326Z,6.90
2024-03-06T07:16:44.828Z,6.40
2024-03-06T07:19:12.029Z,6.13
2024-03-06T07:21:38.875Z,6.10
2024-03-06T07:24:06.097Z,5.85
2024-03-06T07:26:36.357Z,6.45
2024-03-06T07:29:03.937Z,6.55
2024-03-06T07:31:30.816Z,6.25
2024-03-06T07:33:57.689Z,6.97
2024-03-06T07:36:24.495Z,6.30
2024-03-06T07:38:51.224Z,6.28
2024-03-06T07:41:17.895Z,8.05
2024-03-06T07:43:44.860Z,6.93
2024-03-06T07:46:12.295Z,6.68
2024-03-06T07:48:40.097Z,6.88
2024-03-06T07:51:08.262Z,6.22
2024-03-06T07:53:35.096Z,5.55
2024-03-06T07:56:02.232Z,6.88
2024-03-06T07:58:29.663Z,5.93
2024-03-06T08:00:57.392Z,6.85
2024-03-06T08:03:25.360Z,5.95
2024-03-06T08:05:55.573Z,5.43
2024-03-06T08:08:22.756Z,4.60
2024-03-06T08:10:50.172Z,5.78
2024-03-06T08:13:17.340Z,4.53
2024-03-06T08:15:45.725Z,8.15
2024-03-06T08:18:14.290Z,5.65
2024-03-06T08:20:41.663Z,5.38
2024-03-06T08:23:09.335Z,4.65
2024-03-06T08:25:36.200Z,4.72
2024-03-06T08:28:04.388Z,5.32
2024-03-06T08:30:33.907Z,5.07
2024-03-06T08:33:01.552Z,4.78
2024-03-06T08:35:28.745Z,5.38
2024-03-06T08:37:55.478Z,4.60
2024-03-06T08:40:22.713Z,4.70
2024-03-06T08:42:50.060Z,4.80
2024-03-06T08:45:20.239Z,4.18
2024-03-06T08:47:48.753Z,4.65
2024-03-06T08:50:16.145Z,4.90
2024-03-06T08:52:43.858Z,3.55
2024-03-06T08:55:10.867Z,3.95
2024-03-06T08:57:38.310Z,4.13
2024-03-06T09:00:13.470Z,3.30
2024-03-06T09:02:41.529Z,4.05
2024-03-06T09:05:11.405Z,6.75
2024-03-06T09:07:39.416Z,3.65
2024-03-06T09:10:09.400Z,4.10
2024-03-06T09:12:36.258Z,3.10
2024-03-06T09:15:03.968Z,4.10
2024-03-06T09:17:31.116Z,3.95
2024-03-06T09:20:08.015Z,4.47
2024-03-06T09:22:40.500Z,4.20
2024-03-06T09:25:08.444Z,4.35
2024-03-06T09:27:35.625Z,4.70
2024-03-06T09:30:04.152Z,3.92
2024-03-06T09:32:31.673Z,3.63
2024-03-06T09:35:00.014Z,4.97
2024-03-06T09:37:27.277Z,4.72
2024-03-06T09:39:53.917Z,5.38
2024-03-06T09:42:21.095Z,5.05
2024-03-06T09:44:49.042Z,4.75
2024-03-06T09:47:19.124Z,5.30
2024-03-06T09:49:45.952Z,4.40
2024-03-06T09:52:12.791Z,4.53
2024-03-06T09:54:40.553Z,4.47
2024-03-06T09:57:07.351Z,7.10
2024-03-06T09:59:34.449Z,6.57
2024-03-06T10:02:07.044Z,4.95
2024-03-06T10:04:35.385Z,5.05
2024-03-06T10:07:03.642Z,5.55
2024-03-06T10:09:34.357Z,5.35
2024-03-06T10:12:03.868Z,5.63
2024-03-06T10:14:33.776Z,4.82
2024-03-06T10:17:01.805Z,5.15
2024-03-06T10:19:30.697Z,5.43
2024-03-06T10:21:58.435Z,6.03
2024-03-06T10:24:27.154Z,4.68
2024-03-06T10:26:59.399Z,5.55
2024-03-06T10:29:28.054Z,5.43
2024-03-06T10:32:00.817Z,5.82
2024-03-06T10:34:29.091Z,4.95
2024-03-06T10:37:06.717Z,4.95
2024-03-06T10:39:39.631Z,4.75
2024-03-06T10:42:09.496Z,4.50
2024-03-06T10:44:38.129Z,4.88
2024-03-06T10:47:10.618Z,5.28
2024-03-06T10:49:39.252Z,4.40
2024-03-06T10:52:09.360Z,5.63
2024-03-06T10:54:38.081Z,4.55
2024-03-06T10:57:05.489Z,5.03
2024-03-06T10:59:32.531Z,5.63
2024-03-06T11:02:03.413Z,5.43
2024-03-06T11:04:34.815Z,5.03
2024-03-06T11:07:03.397Z,5.65
2024-03-06T11:09:36.160Z,6.07
2024-03-06T11:12:03.741Z,5.22
2024-03-06T11:14:33.005Z,6.15
2024-03-06T11:17:06.037Z,6.43
2024-03-06T11:19:34.175Z,6.38
2024-03-06T11:22:01.046Z,6.55
2024-03-06T11:24:36.818Z,5.40
2024-03-06T11:27:06.529Z,5.72
2024-03-06T11:30:17.734Z,4.97
2024-03-06T11:33:01.990Z,4.60
2024-03-06T11:35:30.054Z,6.13
2024-03-06T11:38:00.347Z,5.60
2024-03-06T11:40:27.040Z,5.72
2024-03-06T11:42:53.874Z,5.38
2024-03-06T11:45:26.334Z,5.80
2024-03-06T11:48:03.693Z,5.53
2024-03-06T11:50:33.985Z,6.95
2024-03-06T11:53:00.874Z,6.68
2024-03-06T11:55:27.745Z,6.13
2024-03-06T11:57:55.307Z,4.53
2024-03-06T12:00:25.181Z,6.05
2024-03-06T12:02:52.851Z,5.32
2024-03-06T12:05:19.804Z,5.70
2024-03-06T12:07:51.211Z,4.75
2024-03-06T12:10:18.537Z,4.57
2024-03-06T12:12:46.069Z,5.40
2024-03-06T12:15:16.446Z,4.47
2024-03-06T12:17:48.736Z,6.00
2024-03-06T12:20:19.541Z,5.15
2024-03-06T12:22:51.057Z,5.32
2024-03-06T12:25:25.442Z,4.82
2024-03-06T12:27:53.159Z,4.82
2024-03-06T12:30:21.753Z,4.65
2024-03-06T12:33:05.233Z,5.75
2024-03-06T12:35:32.409Z,5.03
2024-03-06T12:37:59.646Z,4.72
2024-03-06T12:40:26.444Z,4.78
2024-03-06T12:42:56.381Z,5.20
2024-03-06T12:45:23.102Z,5.55
2024-03-06T12:47:50.842Z,5.57
2024-03-06T12:50:17.849Z,4.78
2024-03-06T12:52:46.976Z,4.55
2024-03-06T12:55:14.909Z,4.05
2024-03-06T12:57:41.879Z,3.90
2024-03-06T13:00:16.830Z,4.35
2024-03-06T13:02:45.339Z,4.57
2024-03-06T13:05:12.804Z,5.18
2024-03-06T13:07:40.452Z,5.43
2024-03-06T13:10:11.345Z,5.00
2024-03-06T13:12:38.973Z,4.57
2024-03-06T13:15:08.309Z,4.43
2024-03-06T13:17:35.594Z,4.88
2024-03-06T13:20:03.204Z,3.97
2024-03-06T13:22:29.937Z,4.50
2024-03-06T13:24:58.301Z,4.18
2024-03-06T13:27:25.079Z,4.53
2024-03-06T13:29:52.301Z,6.65
2024-03-06T13:32:19.050Z,4.05
2024-03-06T13:34:46.056Z,5.13
2024-03-06T13:37:12.810Z,5.00
2024-03-06T13:39:40.038Z,4.28
2024-03-06T13:42:07.431Z,4.50
2024-03-06T13:44:34.224Z,5.53
2024-03-06T13:47:00.998Z,5.53
2024-03-06T13:49:41.690Z,3.97
2024-03-06T13:52:14.556Z,3.85
2024-03-06T13:54:43.564Z,4.57
2024-03-06T13:57:10.721Z,4.80
2024-03-06T13:59:38.674Z,4.03
2024-03-06T14:02:06.365Z,4.43
2024-03-06T14:04:33.223Z,4.82
2024-03-06T14:07:00.108Z,4.63
2024-03-06T14:09:27.964Z,4.38
2024-03-06T14:11:55.464Z,4.80
2024-03-06T14:14:22.399Z,3.95
2024-03-06T14:16:50.180Z,4.25
2024-03-06T14:19:20.132Z,4.65
2024-03-06T14:21:50.448Z,3.72
2024-03-06T14:24:17.138Z,5.03
2024-03-06T14:26:43.860Z,6.07
2024-03-06T14:29:10.910Z,3.90
2024-03-06T14:31:37.890Z,4.22
2024-03-06T14:34:06.641Z,4.95
2024-03-06T14:36:35.136Z,5.35
2024-03-06T14:39:01.973Z,3.47
2024-03-06T14:41:29.381Z,3.90
2024-03-06T14:43:56.126Z,3.40
2024-03-06T14:46:22.957Z,6.63
2024-03-06T14:48:49.647Z,5.35
2024-03-06T14:51:16.586Z,11.15
2024-03-06T14:53:43.373Z,8.25
2024-03-06T14:56:11.968Z,4.70
2024-03-06T14:58:39.172Z,5.00
2024-03-06T15:01:06.287Z,3.92
2024-03-06T15:03:33.173Z,4.22
2024-03-06T15:06:00.119Z,3.40
2024-03-06T15:08:26.901Z,3.25
2024-03-06T15:10:55.078Z,4.10
2024-03-06T15:13:23.895Z,4.70
2024-03-06T15:15:51.611Z,4.18
2024-03-06T15:18:18.821Z,4.07
2024-03-06T15:20:45.872Z,4.10
2024-03-06T15:23:12.875Z,4.75
2024-03-06T15:25:39.647Z,3.67
2024-03-06T15:28:07.960Z,4.35
2024-03-06T15:30:36.457Z,3.90
2024-03-06T15:33:04.591Z,3.72
2024-03-06T15:35:31.949Z,4.40
2024-03-06T15:37:58.734Z,6.53
2024-03-06T15:40:26.032Z,3.92
2024-03-06T15:42:56.311Z,4.72
2024-03-06T15:45:24.525Z,3.67
2024-03-06T15:47:51.408Z,4.80
2024-03-06T15:50:18.221Z,4.07
2024-03-06T15:52:45.771Z,5.22
2024-03-06T15:55:12.581Z,5.78
2024-03-06T15:57:40.015Z,5.38
2024-03-06T16:00:10.288Z,7.43
2024-03-06T16:02:37.774Z,4.53
2024-03-06T16:05:05.016Z,5.88
2024-03-06T16:07:34.586Z,7.15
2024-03-06T16:10:02.662Z,5.70
2024-03-06T16:12:29.579Z,4.15
2024-03-06T16:14:56.422Z,5.82
2024-03-06T16:17:23.140Z,3.35
2024-03-06T16:19:49.817Z,3.50
2024-03-06T16:22:16.463Z,3.22
2024-03-06T16:24:43.947Z,3.50
2024-03-06T16:27:10.698Z,4.90
2024-03-06T16:29:37.560Z,5.05
2024-03-06T16:32:04.537Z,3.63
2024-03-06T16:34:32.735Z,5.93
2024-03-06T16:36:59.595Z,4.18
2024-03-06T16:39:26.353Z,6.03
2024-03-06T16:41:53.112Z,3.13
2024-03-06T16:44:20.747Z,4.05
2024-03-06T16:46:48.119Z,4.68
2024-03-06T16:49:14.972Z,3.65
2024-03-06T16:51:41.710Z,3.60
2024-03-06T16:54:08.704Z,3.97
2024-03-06T16:56:35.646Z,3.20
2024-03-06T16:59:02.437Z,3.55
2024-03-06T17:01:29.671Z,3.20
2024-03-06T17:03:56.414Z,3.17
2024-03-06T17:06:23.077Z,4.43
2024-03-06T17:08:50.180Z,4.78
2024-03-06T17:11:18.227Z,3.85
2024-03-06T17:13:45.506Z,4.63
2024-03-06T17:16:12.495Z,3.45
2024-03-06T17:18:39.316Z,3.40
2024-03-06T17:21:07.035Z,3.60
2024-03-06T17:23:33.821Z,3.63
2024-03-06T17:26:01.074Z,4.72
2024-03-06T17:28:28.038Z,4.30
2024-03-06T17:30:55.848Z,4.18
2024-03-06T17:33:22.752Z,4.55
2024-03-06T17:35:49.968Z,4.25
2024-03-06T17:38:17.729Z,5.55
2024-03-06T17:40:45.229Z,4.45
2024-03-06T17:43:15.871Z,3.67
2024-03-06T17:45:42.607Z,3.78
2024-03-06T17:48:09.867Z,5.57
2024-03-06T17:50:39.882Z,4.05
2024-03-06T17:53:08.362Z,4.25
2024-03-06T17:55:35.084Z,5.70
2024-03-06T17:58:05.655Z,5.38
2024-03-06T18:00:32.923Z,5.65
2024-03-06T18:03:00.247Z,4.55
2024-03-06T18:05:27.110Z,4.43
2024-03-06T18:07:53.765Z,4.40
2024-03-06T18:10:20.913Z,4.68
2024-03-06T18:12:47.692Z,4.80
2024-03-06T18:15:14.501Z,5.45
2024-03-06T18:17:41.522Z,5.53
2024-03-06T18:20:09.092Z,6.22
2024-03-06T18:22:37.047Z,5.50
2024-03-06T18:25:05.414Z,4.82
2024-03-06T18:27:33.015Z,5.47
2024-03-06T18:30:00.150Z,6.22
2024-03-06T18:32:27.276Z,5.20
2024-03-06T18:34:58.478Z,5.82
2024-03-06T18:37:25.832Z,5.93
2024-03-06T18:39:52.570Z,6.80
2024-03-06T18:42:21.671Z,5.40
2024-03-06T18:44:49.978Z,6.90
2024-03-06T18:47:17.126Z,6.22
2024-03-06T18:49:43.924Z,6.43
2024-03-06T18:52:11.529Z,6.75
2024-03-06T18:54:41.438Z,6.07
2024-03-06T18:57:09.577Z,5.88
2024-03-06T18:59:36.649Z,6.82
2024-03-06T19:02:04.244Z,7.05
2024-03-06T19:04:31.088Z,5.95
2024-03-06T19:06:58.730Z,7.38
2024-03-06T19:09:25.470Z,8.75
2024-03-06T19:11:53.170Z,7.03
2024-03-06T19:14:21.579Z,6.75
2024-03-06T19:16:48.495Z,7.35
2024-03-06T19:19:15.616Z,6.68
2024-03-06T19:21:42.489Z,8.00
2024-03-06T19:24:09.198Z,8.50
2024-03-06T19:26:36.191Z,8.55
2024-03-06T19:29:03.341Z,8.45
2024-03-06T19:31:31.950Z,8.38
2024-03-06T19:33:59.501Z,7.80
2024-03-06T19:36:26.234Z,7.53
2024-03-06T19:38:52.986Z,8.23
2024-03-06T19:41:20.518Z,8.55
2024-03-06T19:43:47.264Z,9.13
2024-03-06T19:46:14.105Z,8.57
2024-03-06T19:48:41.512Z,9.15
2024-03-06T19:51:09.409Z,8.95
2024-03-06T19:53:36.394Z,8.43
2024-03-06T19:56:03.971Z,8.15
2024-03-06T19:58:32.205Z,8.57
2024-03-06T20:00:58.860Z,9.75
2024-03-06T20:03:25.574Z,9.48
2024-03-06T20:05:52.360Z,9.93
2024-03-06T20:08:19.880Z,10.02
2024-03-06T20:10:46.722Z,10.75
2024-03-06T20:13:14.584Z,8.73
2024-03-06T20:15:41.233Z,11.05
2024-03-06T20:18:08.098Z,10.55
2024-03-06T20:20:34.968Z,11.45
2024-03-06T20:23:07.977Z,9.75
2024-03-06T20:25:35.685Z,11.30
2024-03-06T20:28:02.607Z,11.63
2024-03-06T20:30:29.419Z,11.75
2024-03-06T20:32:56.183Z,11.63
2024-03-06T20:35:24.914Z,12.23
2024-03-06T20:37:51.851Z,12.07
2024-03-06T20:40:18.833Z,14.57
2024-03-06T20:42:45.964Z,13.30
2024-03-06T20:45:14.148Z,13.70
2024-03-06T20:47:50.728Z,13.82
2024-03-06T20:50:17.586Z,15.70
2024-03-06T20:52:44.296Z,14.95
2024-03-06T20:55:11.043Z,16.23
2024-03-06T20:57:37.771Z,16.85
2024-03-06T21:00:04.970Z,17.00
2024-03-06T21:02:31.968Z,17.45
2024-03-06T21:04:58.653Z,17.38
2024-03-06T21:07:25.318Z,18.25
2024-03-06T21:09:51.948Z,16.75
2024-03-06T21:12:18.772Z,19.20
2024-03-06T21:14:45.532Z,17.48
2024-03-06T21:17:12.301Z,20.88
2024-03-06T21:19:39.056Z,19.40
2024-03-06T21:22:06.922Z,17.15
2024-03-06T21:24:35.773Z,17.60
2024-03-06T21:27:03.380Z,19.83
2024-03-06T21:29:31.689Z,19.35
2024-03-06T21:31:58.384Z,19.15
2024-03-06T21:34:25.075Z,20.95
2024-03-06T21:36:51.740Z,23.50
2024-03-06T21:39:18.399Z,21.17
2024-03-06T21:41:45.585Z,21.95
2024-03-06T21:44:12.318Z,20.48
2024-03-06T21:46:39.043Z,22.17
2024-03-06T21:49:07.753Z,20.17
2024-03-06T21:51:34.544Z,19.38
2024-03-06T21:54:01.212Z,20.60
2024-03-06T21:56:28.019Z,21.17
2024-03-06T21:58:56.996Z,20.02
2024-03-06T22:01:24.213Z,21.45
2024-03-06T22:03:50.966Z,20.58
2024-03-06T22:06:17.677Z,21.38
2024-03-06T22:08:44.395Z,21.48
2024-03-06T22:11:13.082Z,21.90
2024-03-06T22:13:39.960Z,24.38
2024-03-06T22:16:06.904Z,21.88
2024-03-06T22:18:33.646Z,21.00
2024-03-06T22:21:00.419Z,23.80
2024-03-06T22:23:29.734Z,20.90
2024-03-06T22:25:56.447Z,21.58
2024-03-06T22:28:23.206Z,20.63
2024-03-06T22:30:49.836Z,25.05
2024-03-06T22:33:16.895Z,26.35
2024-03-06T22:35:43.792Z,23.42
2024-03-06T22:38:10.602Z,23.13
2024-03-06T22:40:37.695Z,23.90
2024-03-06T22:43:06.176Z,23.55
2024-03-06T22:45:33.071Z,25.60
2024-03-06T22:48:00.097Z,21.65
2024-03-06T22:50:27.316Z,24.27
2024-03-06T22:52:54.052Z,24.17
2024-03-06T22:55:20.957Z,22.83
2024-03-06T22:57:47.602Z,25.52
2024-03-06T23:00:30.216Z,24.58
2024-03-06T23:03:00.646Z,25.88
2024-03-06T23:05:27.562Z,23.17
2024-03-06T23:07:55.087Z,24.30
2024-03-06T23:10:21.840Z,23.35
2024-03-06T23:12:49.062Z,23.55
2024-03-06T23:15:16.352Z,23.20
2024-03-06T23:17:50.161Z,24.58
2024-03-06T23:20:17.741Z,25.58
2024-03-06T23:22:46.155Z,27.73
2024-03-06T23:25:14.770Z,26.13
2024-03-06T23:27:45.449Z,24.92
2024-03-06T23:30:14.280Z,26.15
2024-03-06T23:32:42.073Z,25.17
2024-03-06T23:35:12.114Z,23.73
2024-03-06T23:37:38.840Z,23.63
2024-03-06T23:40:16.113Z,25.45
2024-03-06T23:42:44.430Z,27.73
2024-03-06T23:45:12.463Z,26.00
2024-03-06T23:47:40.135Z,26.90
2024-03-06T23:50:08.906Z,26.10
2024-03-06T23:52:36.358Z,24.98
2024-03-06T23:55:03.626Z,26.40
2024-03-06T23:57:30.617Z,25.85
2024-03-06T23:59:58.647Z,28.45
